createdAt,value
2018-10-16T00:03:14.225Z,16.21
2018-10-16T00:06:02.616Z,16.20
2018-10-16T00:08:54.606Z,16.20
2018-10-16T00:11:44.741Z,16.18
2018-10-16T00:14:32.580Z,16.17
2018-10-16T00:17:20.152Z,16.17
2018-10-16T00:20:07.224Z,16.16
2018-10-16T00:22:54.637Z,16.16
2018-10-16T00:25:46.660Z,16.15
2018-10-16T00:28:36.940Z,16.11
2018-10-16T00:34:31.222Z,16.78
2018-10-16T00:37:20.247Z,16.30
2018-10-16T00:40:09.366Z,16.20
2018-10-16T00:46:03.218Z,16.09
2018-10-16T00:48:51.250Z,16.05
2018-10-16T00:51:39.002Z,16.01
2018-10-16T00:57:32.557Z,15.91
2018-10-16T01:00:20.816Z,15.88
2018-10-16T01:03:08.959Z,16.58
2018-10-16T01:12:10.191Z,15.76
2018-10-16T01:14:58.682Z,15.71
2018-10-16T01:17:47.177Z,15.66
2018-10-16T01:20:35.129Z,15.62
2018-10-16T01:26:29.449Z,16.28
2018-10-16T01:29:21.435Z,15.75
2018-10-16T01:32:08.679Z,16.35
2018-10-16T01:35:01.290Z,16.48
2018-10-16T01:37:49.133Z,15.83
2018-10-16T01:40:39.015Z,15.63
2018-10-16T01:43:27.780Z,15.51
2018-10-16T01:46:15.965Z,15.42
2018-10-16T01:49:03.617Z,15.35
2018-10-16T01:51:54.397Z,15.31
2018-10-16T01:57:50.713Z,16.21
2018-10-16T02:00:39.561Z,15.60
2018-10-16T02:06:33.146Z,15.31
2018-10-16T02:09:20.677Z,15.24
2018-10-16T02:12:08.585Z,15.17
2018-10-16T02:14:56.352Z,15.88
2018-10-16T02:17:43.689Z,15.37
2018-10-16T02:20:30.827Z,15.26
2018-10-16T02:23:17.941Z,15.18
2018-10-16T02:26:05.203Z,15.14
2018-10-16T02:28:53.043Z,15.09
2018-10-16T02:31:40.340Z,15.05
2018-10-16T02:34:27.942Z,14.98
2018-10-16T02:37:15.358Z,14.92
2018-10-16T02:40:03.677Z,14.86
2018-10-16T02:42:50.721Z,14.82
2018-10-16T02:48:44.702Z,14.68
2018-10-16T02:51:32.920Z,14.66
2018-10-16T02:54:21.158Z,14.63
2018-10-16T02:57:09.580Z,15.37
2018-10-16T02:59:58.474Z,15.62
2018-10-16T03:05:50.608Z,15.18
2018-10-16T03:11:44.459Z,15.00
2018-10-16T03:14:32.619Z,14.95
2018-10-16T03:17:20.533Z,14.89
2018-10-16T03:20:16.412Z,14.85
2018-10-16T03:23:04.024Z,15.56
2018-10-16T03:25:53.262Z,15.71
2018-10-16T03:34:53.809Z,15.03
2018-10-16T03:37:41.448Z,14.96
2018-10-16T03:40:31.977Z,15.64
2018-10-16T03:55:52.669Z,14.63
2018-10-16T03:58:40.347Z,14.57
2018-10-16T04:01:29.775Z,14.53
2018-10-16T04:04:18.606Z,14.50
2018-10-16T04:10:10.704Z,14.41
2018-10-16T04:12:58.088Z,15.11
2018-10-16T04:15:47.817Z,14.60
2018-10-16T04:18:35.516Z,15.23
2018-10-16T04:24:29.951Z,14.56
2018-10-16T04:27:17.405Z,15.25
2018-10-16T04:30:06.165Z,14.72
2018-10-16T04:32:54.785Z,14.60
2018-10-16T04:35:43.555Z,15.27
2018-10-16T04:38:41.712Z,14.64
2018-10-16T04:41:34.787Z,15.20
2018-10-16T04:47:31.402Z,14.69
2018-10-16T04:50:20.903Z,15.31
2018-10-16T04:53:08.421Z,14.69
2018-10-16T04:59:25.355Z,14.39
2018-10-16T05:02:13.808Z,14.30
2018-10-16T05:05:19.829Z,14.24
2018-10-16T05:08:17.858Z,14.19
2018-10-16T05:11:19.120Z,14.18
2018-10-16T05:14:08.349Z,14.13
2018-10-16T05:16:56.873Z,14.83
2018-10-16T05:19:44.419Z,14.28
2018-10-16T05:22:33.440Z,14.13
2018-10-16T05:25:21.211Z,14.06
2018-10-16T05:28:09.071Z,14.00
2018-10-16T05:30:56.476Z,13.93
2018-10-16T05:33:56.580Z,13.89
2018-10-16T05:39:50.323Z,13.83
2018-10-16T05:42:40.670Z,13.80
2018-10-16T05:48:35.250Z,13.75
2018-10-16T05:54:30.475Z,13.76
2018-10-16T06:00:32.131Z,13.79
2018-10-16T06:16:05.333Z,14.15
2018-10-16T06:19:02.747Z,14.13
2018-10-16T06:37:42.244Z,14.23
2018-10-16T06:50:07.146Z,14.39
2018-10-16T07:08:58.122Z,14.55
2018-10-16T07:21:30.093Z,14.54
2018-10-16T07:27:27.978Z,14.56
2018-10-16T07:40:14.720Z,14.83
2018-10-16T07:43:07.163Z,14.85
2018-10-16T08:47:03.066Z,16.63
2018-10-16T08:56:32.401Z,16.89
2018-10-16T08:59:31.824Z,17.99
2018-10-16T09:02:21.177Z,17.34
2018-10-16T09:08:18.892Z,17.64
2018-10-16T09:11:06.963Z,17.59
2018-10-16T09:20:21.026Z,17.50
2018-10-16T09:23:17.583Z,17.49
2018-10-16T09:26:05.308Z,17.42
2018-10-16T09:29:02.367Z,17.49
2018-10-16T09:34:59.076Z,17.93
2018-10-16T09:37:50.512Z,17.81
2018-10-16T09:40:40.960Z,17.78
2018-10-16T09:43:29.071Z,17.88
2018-10-16T09:46:16.327Z,18.04
2018-10-16T09:49:06.490Z,18.18
2018-10-16T09:51:54.895Z,18.27
2018-10-16T09:54:44.983Z,18.38
2018-10-16T09:57:32.181Z,18.48
2018-10-16T10:00:22.434Z,18.58
2018-10-16T10:03:12.169Z,18.66
2018-10-16T10:06:00.366Z,18.74
2018-10-16T10:08:48.280Z,18.77
2018-10-16T10:11:36.026Z,18.85
2018-10-16T10:14:23.665Z,18.94
2018-10-16T10:17:13.721Z,20.12
2018-10-16T10:20:09.373Z,19.60
2018-10-16T10:22:56.856Z,19.58
2018-10-16T10:25:46.559Z,19.64
2018-10-16T10:28:34.084Z,20.66
2018-10-16T10:31:21.721Z,20.03
2018-10-16T10:34:12.770Z,20.01
2018-10-16T10:37:01.014Z,20.00
2018-10-16T10:39:49.827Z,19.90
2018-10-16T10:42:38.544Z,19.94
2018-10-16T10:45:25.902Z,20.04
2018-10-16T10:48:15.314Z,20.13
2018-10-16T10:51:04.623Z,20.22
2018-10-16T10:53:52.691Z,20.19
2018-10-16T10:56:42.266Z,20.28
2018-10-16T11:02:46.496Z,20.57
2018-10-16T11:05:41.037Z,20.59
2018-10-16T11:11:37.141Z,20.49
2018-10-16T11:14:33.754Z,20.45
2018-10-16T11:23:47.068Z,20.56
2018-10-16T11:26:37.447Z,20.57
2018-10-16T11:32:36.143Z,20.67
2018-10-16T11:35:33.636Z,20.81
2018-10-16T11:38:23.988Z,22.07
2018-10-16T11:47:36.993Z,21.84
2018-10-16T11:53:47.394Z,22.23
2018-10-16T11:56:37.163Z,22.06
2018-10-16T11:59:27.233Z,21.90
2018-10-16T12:02:30.959Z,21.86
2018-10-16T12:05:28.846Z,22.88
2018-10-16T12:08:31.733Z,22.12
2018-10-16T12:11:29.252Z,22.03
2018-10-16T12:14:20.443Z,21.96
2018-10-16T12:20:17.507Z,21.75
2018-10-16T12:29:37.386Z,22.98
2018-10-16T12:32:30.593Z,22.26
2018-10-16T12:38:31.959Z,22.36
2018-10-16T12:41:22.851Z,22.43
2018-10-16T12:56:57.291Z,22.18
2018-10-16T13:00:03.845Z,22.17
2018-10-16T13:02:58.277Z,22.12
2018-10-16T13:05:49.969Z,22.12
2018-10-16T13:08:45.822Z,22.10
2018-10-16T13:11:38.464Z,22.08
2018-10-16T13:14:29.657Z,21.98
2018-10-16T13:17:22.483Z,21.98
2018-10-16T13:39:25.167Z,21.68
2018-10-16T13:45:33.654Z,21.52
2018-10-16T13:51:31.629Z,21.50
2018-10-16T13:54:19.341Z,21.44
2018-10-16T13:57:15.947Z,21.34
2018-10-16T14:03:22.842Z,21.04
2018-10-16T14:06:17.133Z,20.94
2018-10-16T14:12:29.803Z,20.88
2018-10-16T14:15:23.510Z,21.79
2018-10-16T14:27:54.088Z,20.68
2018-10-16T14:30:46.427Z,20.48
2018-10-16T14:36:47.609Z,20.10
2018-10-16T14:39:45.506Z,20.76
2018-10-16T14:46:01.819Z,19.74
2018-10-16T14:48:52.281Z,19.56
2018-10-16T14:54:55.631Z,20.12
2018-10-16T15:01:01.157Z,19.07
2018-10-16T15:03:51.874Z,19.78
2018-10-16T15:06:46.486Z,19.10
2018-10-16T15:09:37.805Z,18.91
2018-10-16T15:15:39.153Z,18.77
2018-10-16T15:31:23.122Z,18.41
2018-10-16T15:37:21.389Z,18.19
2018-10-16T15:40:22.763Z,18.09
2018-10-16T15:49:45.991Z,17.78
2018-10-16T15:52:33.721Z,17.69
2018-10-16T15:55:21.227Z,17.61
2018-10-16T15:58:09.091Z,17.53
2018-10-16T16:00:59.036Z,17.45
2018-10-16T16:03:54.553Z,17.40
2018-10-16T16:06:42.458Z,18.15
2018-10-16T16:09:35.639Z,17.59
2018-10-16T16:25:11.177Z,17.32
2018-10-16T16:31:30.568Z,17.12
2018-10-16T16:34:20.973Z,17.04
2018-10-16T16:37:18.565Z,16.96
2018-10-16T16:40:07.705Z,16.91
2018-10-16T16:43:10.007Z,16.87
2018-10-16T16:52:31.302Z,16.65
2018-10-16T16:55:21.736Z,16.58
2018-10-16T16:58:18.664Z,17.24
2018-10-16T17:10:47.264Z,16.45
2018-10-16T17:13:38.633Z,16.34
2018-10-16T17:16:28.182Z,16.27
2018-10-16T17:19:17.239Z,16.19
2018-10-16T17:22:08.905Z,16.04
2018-10-16T17:24:57.953Z,15.90
2018-10-16T17:31:05.067Z,15.71
2018-10-16T17:37:08.253Z,15.73
2018-10-16T17:43:12.825Z,15.51
2018-10-16T17:52:24.651Z,15.55
2018-10-16T18:04:55.701Z,15.15
2018-10-16T18:11:07.750Z,16.10
2018-10-16T18:29:55.901Z,14.82
2018-10-16T18:32:48.989Z,14.75
2018-10-16T18:35:41.939Z,14.68
2018-10-16T18:38:39.933Z,14.59
2018-10-16T18:41:30.160Z,14.49
2018-10-16T18:47:34.938Z,15.15
2018-10-16T19:03:05.158Z,14.50
2018-10-16T19:09:05.685Z,14.30
2018-10-16T19:11:55.937Z,14.22
2018-10-16T19:14:52.568Z,14.15
2018-10-16T19:17:46.574Z,14.05
2018-10-16T19:30:04.185Z,13.90
2018-10-16T19:33:04.381Z,13.83
2018-10-16T19:35:57.669Z,13.81
2018-10-16T19:41:58.173Z,13.71
2018-10-16T20:06:52.369Z,13.41
2018-10-16T20:15:53.659Z,13.42
2018-10-16T20:18:41.319Z,13.37
2018-10-16T20:21:31.844Z,13.34
2018-10-16T20:27:27.957Z,13.53
2018-10-16T20:30:18.249Z,13.42
2018-10-16T20:33:05.888Z,13.31
2018-10-16T20:35:56.506Z,13.23
2018-10-16T20:45:08.806Z,13.10
2018-10-16T20:47:59.670Z,13.10
2018-10-16T20:50:55.290Z,13.13
2018-10-16T20:53:45.873Z,13.13
2018-10-16T20:56:33.350Z,13.15
2018-10-16T20:59:29.038Z,13.15
2018-10-16T21:02:17.263Z,13.15
2018-10-16T21:05:06.019Z,13.13
2018-10-16T21:07:53.460Z,13.13
2018-10-16T21:10:55.515Z,13.09
2018-10-16T21:20:09.323Z,13.10
2018-10-16T21:22:56.995Z,13.09
2018-10-16T21:25:46.578Z,13.08
2018-10-16T21:31:40.840Z,13.30
2018-10-16T21:37:34.976Z,13.17
2018-10-16T21:40:22.468Z,13.14
2018-10-16T21:43:12.065Z,13.11
2018-10-16T21:49:08.310Z,13.05
2018-10-16T21:55:03.466Z,12.97
2018-10-16T21:57:52.037Z,12.93
2018-10-16T22:00:40.157Z,12.88
2018-10-16T22:03:30.551Z,12.82
2018-10-16T22:06:18.050Z,12.75
2018-10-16T22:09:07.032Z,13.41
2018-10-16T22:18:09.519Z,12.61
2018-10-16T22:24:04.274Z,12.42
2018-10-16T22:26:52.114Z,12.34
2018-10-16T22:32:45.799Z,12.16
2018-10-16T22:35:33.132Z,12.08
2018-10-16T22:47:41.124Z,11.86
2018-10-16T22:50:28.886Z,11.82
2018-10-16T22:53:16.676Z,11.79
2018-10-16T22:56:05.049Z,12.46
2018-10-16T22:58:52.596Z,12.02
2018-10-16T23:01:40.768Z,11.93
2018-10-16T23:07:41.708Z,11.72
2018-10-16T23:10:29.041Z,12.34
2018-10-16T23:13:16.861Z,11.80
2018-10-16T23:16:21.087Z,11.64
2018-10-16T23:19:08.799Z,12.27
2018-10-16T23:22:04.961Z,11.71
2018-10-16T23:43:45.110Z,11.29
2018-10-16T23:46:40.003Z,11.24
2018-10-16T23:49:35.570Z,11.91
2018-10-16T23:52:23.145Z,11.42
2018-10-16T23:55:11.466Z,12.02
2018-10-16T23:57:58.935Z,12.17
